Time;durP1;ratioP1;P1;durP2;ratioP2;P2;SDS_P1;SDS_P2;PMS_P1;PMS_P2;Temp;Humidity;BMP_temperature;BMP_pressure;BME280_temperature;BME280_humidity;BME280_pressure;Samples;Min_cycle;Max_cycle;Signal;HPM_P1;HPM_P2
2021/06/01 00:01:21;;;;;;;1.38;1.38;;;11.20;86.00;;;;;;5052040;28;20191;-74
2021/06/01 00:03:46;;;;;;;1.23;1.23;;;11.20;86.10;;;;;;5052926;28;20171;-74
2021/06/01 00:06:12;;;;;;;1.45;1.45;;;11.20;85.90;;;;;;5051123;28;20215;-74
2021/06/01 00:08:39;;;;;;;1.30;1.30;;;11.20;86.00;;;;;;5052468;28;20586;-74
2021/06/01 00:11:06;;;;;;;0.90;0.90;;;11.20;85.70;;;;;;5049043;28;20195;-74
2021/06/01 00:13:32;;;;;;;17.80;1.20;;;11.30;85.90;;;;;;5048468;28;20559;-73
2021/06/01 00:15:58;;;;;;;1.17;1.17;;;11.30;85.90;;;;;;5046005;28;20199;-74
2021/06/01 00:18:24;;;;;;;1.30;1.30;;;11.30;85.70;;;;;;5047712;28;20183;-73
2021/06/01 00:20:50;;;;;;;1.33;1.33;;;11.30;85.80;;;;;;5047386;28;20190;-74
2021/06/01 00:23:16;;;;;;;0.90;0.80;;;11.30;85.80;;;;;;5046825;28;20176;-73
2021/06/01 00:25:41;;;;;;;1.00;1.00;;;11.30;85.80;;;;;;5049367;28;20226;-74
2021/06/01 00:28:07;;;;;;;0.90;0.90;;;11.30;85.80;;;;;;5049828;28;20172;-74
2021/06/01 00:30:33;;;;;;;1.00;1.00;;;11.30;85.80;;;;;;5051222;28;20214;-73
2021/06/01 00:32:58;;;;;;;1.00;1.00;;;11.30;85.80;;;;;;5046268;28;20183;-73
2021/06/01 00:35:24;;;;;;;1.02;1.02;;;11.30;85.50;;;;;;5037050;28;20193;-73
2021/06/01 00:37:50;;;;;;;1.05;1.05;;;11.30;85.60;;;;;;5042735;28;20184;-74
2021/06/01 00:40:16;;;;;;;1.40;1.30;;;11.30;85.80;;;;;;5047157;28;20211;-74
2021/06/01 00:42:42;;;;;;;0.98;0.98;;;11.30;86.00;;;;;;5046991;28;20175;-74
2021/06/01 00:45:08;;;;;;;1.00;1.00;;;11.30;86.10;;;;;;5045310;28;20585;-75
2021/06/01 00:47:34;;;;;;;1.48;1.48;;;11.30;86.10;;;;;;5047224;28;20190;-74
2021/06/01 00:50:00;;;;;;;0.98;0.98;;;11.30;86.20;;;;;;5045571;28;20179;-74
2021/06/01 00:52:25;;;;;;;1.30;1.20;;;11.30;86.30;;;;;;5048215;28;20269;-73
2021/06/01 00:54:51;;;;;;;1.10;1.10;;;11.30;86.30;;;;;;5051894;28;20183;-74
2021/06/01 00:57:17;;;;;;;0.90;0.90;;;11.30;86.30;;;;;;5046599;28;20260;-73
2021/06/01 00:59:43;;;;;;;1.33;1.33;;;11.30;86.00;;;;;;5047551;28;20179;-74
2021/06/01 01:02:08;;;;;;;0.90;0.90;;;11.30;86.10;;;;;;5055477;28;20689;-74
2021/06/01 01:04:35;;;;;;;1.13;1.13;;;11.20;86.10;;;;;;5049848;28;20266;-74
2021/06/01 01:07:17;;;;;;;1.02;1.02;;;11.20;86.20;;;;;;5050118;28;20211;-74
2021/06/01 01:09:44;;;;;;;1.23;1.23;;;11.20;85.90;;;;;;5057945;28;20593;-74
2021/06/01 01:12:34;;;;;;;1.10;1.10;;;11.20;86.00;;;;;;5050332;28;20232;-74
2021/06/01 01:15:05;;;;;;;1.08;1.08;;;11.20;85.90;;;;;;5052408;28;20257;-73
2021/06/01 01:17:42;;;;;;;1.35;1.35;;;11.20;86.00;;;;;;5048230;28;20187;-73
2021/06/01 01:20:28;;;;;;;1.42;1.33;;;11.20;86.50;;;;;;5051502;28;20210;-74
2021/06/01 01:22:55;;;;;;;1.30;1.30;;;11.20;86.30;;;;;;5007756;28;20271;-74
2021/06/01 01:25:40;;;;;;;1.63;1.63;;;11.30;86.50;;;;;;5000583;28;20232;-74
2021/06/01 01:28:13;;;;;;;1.67;1.67;;;11.30;86.30;;;;;;5006384;28;20228;-73
2021/06/01 01:30:49;;;;;;;1.42;1.42;;;11.40;86.30;;;;;;5001347;28;20287;-74
2021/06/01 01:33:20;;;;;;;1.20;1.20;;;11.40;86.20;;;;;;5003677;28;20617;-73
2021/06/01 01:35:51;;;;;;;0.93;0.93;;;11.40;86.90;;;;;;5006783;28;20971;-74
2021/06/01 01:38:18;;;;;;;1.20;1.20;;;11.40;87.60;;;;;;5007246;28;20230;-73
2021/06/01 01:40:45;;;;;;;1.23;1.17;;;11.30;88.10;;;;;;5007673;28;20199;-73
2021/06/01 01:43:15;;;;;;;1.20;1.20;;;11.30;88.40;;;;;;5007295;28;20259;-73
2021/06/01 01:45:46;;;;;;;1.20;1.20;;;11.30;88.40;;;;;;5002461;28;20220;-72
2021/06/01 01:51:14;;;;;;;1.30;1.30;;;11.20;88.30;;;;;;5003785;28;20185;-72
2021/06/01 01:53:47;;;;;;;1.38;1.38;;;11.20;88.90;;;;;;5005561;28;21770;-73
2021/06/01 01:56:14;;;;;;;0.93;0.93;;;11.20;88.80;;;;;;5001837;28;20289;-73
2021/06/01 01:58:41;;;;;;;1.02;1.02;;;11.20;88.90;;;;;;4999652;28;20182;-73
2021/06/01 02:01:06;;;;;;;1.10;1.10;;;11.20;88.50;;;;;;5037335;28;20184;-72
2021/06/01 02:03:32;;;;;;;1.45;1.45;;;11.20;88.60;;;;;;5049151;28;20190;-72
2021/06/01 02:05:59;;;;;;;1.10;1.10;;;11.20;88.50;;;;;;5053191;28;20214;-72
2021/06/01 02:08:24;;;;;;;1.15;1.15;;;11.20;88.70;;;;;;5051289;28;20187;-71
2021/06/01 02:10:50;;;;;;;1.65;1.08;;;11.20;88.50;;;;;;5053370;28;20183;-72
2021/06/01 02:13:16;;;;;;;1.70;1.08;;;11.30;88.40;;;;;;5049099;28;20596;-72
2021/06/01 02:15:43;;;;;;;0.90;0.90;;;11.30;88.00;;;;;;5052042;28;20195;-72
2021/06/01 02:18:09;;;;;;;1.10;1.10;;;11.40;87.80;;;;;;5046702;28;20195;-72
2021/06/01 02:20:35;;;;;;;1.25;1.25;;;11.40;87.80;;;;;;5055048;28;20302;-71
2021/06/01 02:26:13;;;;;;;1.45;1.35;;;11.40;87.70;;;;;;5045009;28;20229;-73
2021/06/01 02:28:44;;;;;;;1.50;1.40;;;11.50;87.60;;;;;;5047093;28;20192;-73
2021/06/01 02:31:20;;;;;;;1.00;1.00;;;11.50;87.80;;;;;;5053047;28;20192;-72
2021/06/01 02:33:50;;;;;;;1.10;1.10;;;11.40;87.90;;;;;;5041569;28;20178;-73
2021/06/01 02:36:17;;;;;;;1.00;1.00;;;11.40;87.80;;;;;;5038809;28;20592;-73
2021/06/01 02:38:44;;;;;;;0.93;0.93;;;11.40;88.10;;;;;;5053677;28;20265;-72
2021/06/01 02:41:13;;;;;;;0.90;0.90;;;11.40;88.10;;;;;;5055803;28;20566;-73
2021/06/01 02:43:39;;;;;;;1.10;1.10;;;11.40;88.40;;;;;;5047838;28;20664;-73
2021/06/01 02:46:06;;;;;;;0.90;0.90;;;11.30;88.30;;;;;;5048703;28;20314;-73
2021/06/01 02:48:32;;;;;;;0.60;0.60;;;11.20;88.40;;;;;;5048173;28;20175;-73
2021/06/01 02:51:14;;;;;;;0.90;0.90;;;11.20;88.60;;;;;;5045587;28;20714;-74
2021/06/01 02:53:49;;;;;;;0.95;0.95;;;11.20;88.70;;;;;;5046116;28;20196;-73
2021/06/01 02:56:16;;;;;;;0.77;0.77;;;11.20;89.00;;;;;;5046673;28;20254;-73
2021/06/01 02:58:43;;;;;;;0.98;0.98;;;11.10;89.00;;;;;;5045558;28;20626;-73
2021/06/01 03:01:21;;;;;;;0.90;0.90;;;11.10;89.30;;;;;;5048782;28;20631;-72
2021/06/01 03:03:49;;;;;;;1.10;1.10;;;11.10;89.20;;;;;;5046515;28;20194;-73
2021/06/01 03:06:17;;;;;;;0.88;0.85;;;11.00;89.60;;;;;;5046859;28;20227;-72
2021/06/01 03:08:44;;;;;;;0.80;0.80;;;11.00;89.50;;;;;;5047732;28;20183;-73
2021/06/01 03:11:11;;;;;;;0.88;0.88;;;11.00;89.70;;;;;;5051774;28;20187;-74
2021/06/01 03:13:36;;;;;;;1.15;1.15;;;11.00;89.90;;;;;;5048629;28;20235;-73
2021/06/01 03:16:03;;;;;;;1.08;1.08;;;11.00;90.00;;;;;;5046155;28;20183;-73
2021/06/01 03:18:30;;;;;;;1.40;1.40;;;11.00;90.60;;;;;;5041752;28;20211;-72
2021/06/01 03:20:56;;;;;;;1.13;1.10;;;11.00;91.50;;;;;;5045610;28;20184;-72
2021/06/01 03:23:22;;;;;;;1.00;1.00;;;10.90;92.40;;;;;;5047316;28;20183;-73
2021/06/01 03:25:48;;;;;;;0.95;0.93;;;10.80;92.70;;;;;;5051633;28;20297;-72
2021/06/01 03:28:15;;;;;;;1.63;1.55;;;10.80;93.20;;;;;;5046839;28;20187;-73
2021/06/01 03:30:41;;;;;;;1.65;1.00;;;10.70;93.10;;;;;;5048664;28;20206;-73
2021/06/01 03:33:08;;;;;;;1.05;1.05;;;10.70;93.80;;;;;;5044735;28;20175;-72
2021/06/01 03:35:34;;;;;;;1.00;1.00;;;10.60;93.90;;;;;;5054642;28;20211;-72
2021/06/01 03:37:59;;;;;;;0.82;0.82;;;10.60;94.00;;;;;;5044701;28;20216;-71
2021/06/01 03:40:25;;;;;;;0.60;0.60;;;10.60;94.00;;;;;;5049762;28;20551;-71
2021/06/01 03:42:51;;;;;;;0.98;0.98;;;10.60;94.10;;;;;;5045841;28;20180;-72
2021/06/01 03:45:20;;;;;;;0.93;0.93;;;10.60;94.20;;;;;;5050586;28;20186;-72
2021/06/01 03:47:45;;;;;;;0.85;0.85;;;10.70;94.30;;;;;;5052296;28;20211;-72
2021/06/01 03:50:12;;;;;;;0.88;0.88;;;10.70;94.20;;;;;;5048462;28;20623;-72
2021/06/01 03:52:38;;;;;;;0.75;0.75;;;10.70;93.60;;;;;;5046853;28;20180;-72
2021/06/01 03:55:04;;;;;;;0.90;0.90;;;10.70;93.70;;;;;;5049734;28;20629;-72
2021/06/01 03:57:30;;;;;;;0.63;0.63;;;10.70;93.60;;;;;;5049768;28;20195;-72
2021/06/01 03:59:56;;;;;;;0.70;0.60;;;10.80;93.60;;;;;;5046119;28;20184;-72
2021/06/01 04:02:22;;;;;;;0.60;0.60;;;10.80;93.50;;;;;;5046078;28;20214;-72
2021/06/01 04:04:49;;;;;;;1.15;0.70;;;10.90;92.90;;;;;;5045455;28;20253;-72
2021/06/01 04:07:16;;;;;;;0.80;0.80;;;10.90;92.70;;;;;;5045177;28;20227;-70
2021/06/01 04:09:42;;;;;;;1.88;0.80;;;11.00;92.50;;;;;;5049315;28;20182;-70
2021/06/01 04:12:08;;;;;;;0.80;0.80;;;11.00;92.00;;;;;;5048803;28;20184;-70
2021/06/01 04:14:34;;;;;;;0.50;0.50;;;11.00;91.90;;;;;;5051761;28;20221;-72
2021/06/01 04:17:00;;;;;;;0.70;0.70;;;11.10;91.60;;;;;;5046078;28;20257;-72
2021/06/01 04:19:26;;;;;;;0.65;0.65;;;11.10;91.70;;;;;;5046283;28;20817;-73
2021/06/01 04:21:52;;;;;;;0.90;0.90;;;11.10;91.40;;;;;;5047150;28;20582;-73
2021/06/01 04:24:19;;;;;;;0.70;0.70;;;11.10;91.40;;;;;;5046943;28;20237;-72
2021/06/01 04:26:45;;;;;;;0.75;0.75;;;11.10;91.30;;;;;;5042792;28;20211;-73
2021/06/01 04:29:10;;;;;;;0.90;0.90;;;11.10;91.20;;;;;;5049874;28;20175;-72
2021/06/01 04:31:38;;;;;;;0.90;0.90;;;11.10;91.10;;;;;;5047408;28;20176;-72
2021/06/01 04:34:04;;;;;;;0.77;0.77;;;11.10;91.00;;;;;;5046890;28;20203;-71
2021/06/01 04:36:30;;;;;;;0.57;0.57;;;11.10;91.20;;;;;;5049223;28;20214;-72
2021/06/01 04:38:55;;;;;;;0.90;0.90;;;11.10;91.50;;;;;;5055862;28;20191;-69
2021/06/01 04:41:21;;;;;;;0.90;0.90;;;11.10;91.90;;;;;;5050218;28;20191;-70
2021/06/01 04:43:47;;;;;;;0.98;0.98;;;11.00;92.30;;;;;;5048621;28;20190;-70
2021/06/01 04:46:13;;;;;;;1.08;1.08;;;11.00;92.30;;;;;;5049332;28;20699;-69
2021/06/01 04:48:38;;;;;;;1.10;1.10;;;11.00;92.40;;;;;;5051502;28;20191;-69
2021/06/01 04:51:04;;;;;;;0.80;0.80;;;11.00;92.40;;;;;;5051910;28;20186;-69
2021/06/01 04:53:30;;;;;;;0.70;0.70;;;11.00;92.70;;;;;;5053822;28;20184;-69
2021/06/01 04:55:56;;;;;;;1.00;1.00;;;11.00;92.80;;;;;;5047428;28;20253;-70
2021/06/01 04:58:21;;;;;;;0.88;0.88;;;11.00;93.00;;;;;;5049629;28;20852;-70
2021/06/01 05:00:47;;;;;;;0.70;0.70;;;11.00;93.20;;;;;;5049121;28;20196;-69
2021/06/01 05:03:13;;;;;;;0.60;0.60;;;10.90;93.10;;;;;;5051032;28;20191;-68
2021/06/01 05:05:38;;;;;;;0.80;0.80;;;10.90;92.90;;;;;;5048503;28;20242;-68
2021/06/01 05:08:04;;;;;;;0.90;0.90;;;10.90;93.10;;;;;;5048950;28;20241;-69
2021/06/01 05:10:30;;;;;;;0.80;0.80;;;10.90;93.20;;;;;;5044591;28;20245;-68
2021/06/01 05:12:56;;;;;;;0.82;0.82;;;10.90;93.20;;;;;;5047457;28;20175;-68
2021/06/01 05:15:21;;;;;;;0.73;0.73;;;11.00;93.50;;;;;;5048521;28;20195;-69
2021/06/01 05:17:47;;;;;;;0.90;0.90;;;11.00;93.90;;;;;;5049124;28;20206;-72
2021/06/01 05:20:13;;;;;;;1.00;1.00;;;11.00;93.70;;;;;;5048141;28;20175;-72
2021/06/01 05:22:39;;;;;;;0.88;0.88;;;11.00;93.40;;;;;;5048405;28;20253;-71
2021/06/01 05:25:06;;;;;;;0.77;0.77;;;11.00;93.20;;;;;;5047460;28;20191;-70
2021/06/01 05:27:31;;;;;;;0.68;0.68;;;11.00;93.20;;;;;;5048833;28;20188;-71
2021/06/01 05:30:01;;;;;;;0.75;0.75;;;11.00;93.00;;;;;;5044781;28;20256;-72
2021/06/01 05:35:15;;;;;;;0.80;0.65;;;11.10;93.00;;;;;;5050323;28;20334;-74
2021/06/01 05:37:41;;;;;;;0.93;0.93;;;11.20;92.60;;;;;;5044200;28;20186;-73
2021/06/01 05:40:07;;;;;;;1.60;0.70;;;11.30;92.40;;;;;;5048555;28;21026;-73
2021/06/01 05:42:33;;;;;;;0.60;0.60;;;11.40;92.50;;;;;;5048726;28;20233;-73
2021/06/01 05:44:59;;;;;;;0.82;0.82;;;11.40;92.50;;;;;;5045713;28;20586;-72
2021/06/01 05:47:25;;;;;;;0.57;0.57;;;11.50;91.50;;;;;;5047733;28;20670;-73
2021/06/01 05:49:50;;;;;;;0.98;0.98;;;11.50;90.80;;;;;;5048345;28;20215;-72
2021/06/01 05:52:16;;;;;;;0.55;0.55;;;11.60;90.90;;;;;;5048765;28;20684;-72
2021/06/01 05:54:42;;;;;;;0.52;0.52;;;11.60;90.80;;;;;;5048905;28;20175;-73
2021/06/01 05:57:08;;;;;;;0.55;0.55;;;11.70;90.80;;;;;;5048219;28;20187;-73
2021/06/01 05:59:34;;;;;;;0.60;0.60;;;11.70;90.20;;;;;;5048548;28;20298;-73
2021/06/01 06:02:03;;;;;;;0.60;0.60;;;11.70;90.50;;;;;;5048734;28;20186;-74
2021/06/01 06:04:29;;;;;;;0.80;0.80;;;11.70;90.30;;;;;;5048033;28;20180;-73
2021/06/01 06:06:54;;;;;;;0.90;0.90;;;11.80;90.30;;;;;;5048758;28;20215;-73
2021/06/01 06:09:20;;;;;;;0.70;0.70;;;11.90;90.00;;;;;;5048341;28;20661;-74
2021/06/01 06:11:46;;;;;;;1.48;0.50;;;11.90;89.70;;;;;;5048155;28;20222;-74
2021/06/01 06:14:11;;;;;;;0.93;0.93;;;12.00;89.40;;;;;;5046469;28;20199;-73
2021/06/01 06:16:49;;;;;;;0.70;0.70;;;12.00;89.40;;;;;;5048229;28;20270;-74
2021/06/01 06:19:15;;;;;;;0.73;0.73;;;12.00;89.30;;;;;;5039596;28;20656;-73
2021/06/01 06:21:41;;;;;;;0.60;0.60;;;12.10;89.50;;;;;;5047558;28;20214;-72
2021/06/01 06:24:07;;;;;;;0.98;0.98;;;12.10;89.10;;;;;;5046572;28;20195;-73
2021/06/01 06:26:32;;;;;;;1.05;1.05;;;12.10;89.40;;;;;;5047911;28;20226;-74
2021/06/01 06:28:58;;;;;;;0.90;0.90;;;12.20;89.70;;;;;;5046475;28;20668;-73
2021/06/01 06:31:24;;;;;;;0.75;0.75;;;12.30;90.20;;;;;;5047951;28;20254;-73
2021/06/01 06:33:50;;;;;;;0.75;0.70;;;12.50;89.50;;;;;;5047560;28;20259;-73
2021/06/01 06:36:16;;;;;;;1.20;0.75;;;12.50;87.80;;;;;;5048000;28;20190;-73
2021/06/01 06:38:45;;;;;;;0.70;0.70;;;12.60;87.20;;;;;;5047905;28;20182;-73
2021/06/01 06:43:38;;;;;;;0.60;0.60;;;12.70;87.50;;;;;;5047735;28;20207;-73
2021/06/01 06:46:11;;;;;;;0.77;0.75;;;12.80;87.10;;;;;;5047725;28;20716;-73
2021/06/01 06:48:37;;;;;;;2.03;0.90;;;12.80;86.80;;;;;;5048008;28;20677;-74
2021/06/01 06:51:12;;;;;;;0.50;0.50;;;12.90;86.50;;;;;;5047995;28;20175;-73
2021/06/01 06:53:43;;;;;;;0.82;0.82;;;12.80;85.80;;;;;;5047798;28;20165;-74
2021/06/01 06:56:09;;;;;;;0.77;0.77;;;12.80;86.10;;;;;;5044596;28;20583;-74
2021/06/01 06:58:34;;;;;;;0.60;0.60;;;12.80;86.00;;;;;;5045771;28;20179;-73
2021/06/01 07:01:00;;;;;;;0.80;0.80;;;12.80;85.70;;;;;;5046426;28;20202;-73
2021/06/01 07:03:26;;;;;;;0.82;0.82;;;12.80;85.60;;;;;;5046769;28;20225;-73
2021/06/01 07:05:51;;;;;;;0.70;0.70;;;12.80;85.50;;;;;;5046985;28;20234;-73
2021/06/01 07:08:17;;;;;;;0.40;0.40;;;12.80;85.00;;;;;;5046871;28;20262;-73
2021/06/01 07:10:42;;;;;;;1.27;0.70;;;12.70;85.20;;;;;;5047032;28;20172;-73
2021/06/01 07:13:12;;;;;;;0.60;0.60;;;12.70;85.30;;;;;;5046826;28;20218;-73
2021/06/01 07:15:46;;;;;;;0.73;0.73;;;12.80;85.80;;;;;;5045545;28;20219;-73
2021/06/01 07:18:13;;;;;;;0.68;0.68;;;13.00;85.40;;;;;;5046775;28;20888;-73
2021/06/01 07:20:39;;;;;;;0.80;0.80;;;13.20;84.70;;;;;;5046833;28;20250;-73
2021/06/01 07:23:04;;;;;;;0.50;0.50;;;13.30;84.20;;;;;;5047122;28;20276;-74
2021/06/01 07:25:31;;;;;;;0.68;0.68;;;13.40;84.20;;;;;;5046816;28;20211;-74
2021/06/01 07:27:57;;;;;;;0.88;0.88;;;13.50;84.20;;;;;;5046801;28;20180;-74
2021/06/01 07:30:23;;;;;;;1.17;0.75;;;13.50;82.50;;;;;;5045743;28;20193;-74
2021/06/01 07:32:48;;;;;;;1.85;0.85;;;13.50;82.10;;;;;;5046670;28;20266;-73
2021/06/01 07:35:16;;;;;;;1.58;1.10;;;13.50;81.20;;;;;;5046315;28;20258;-73
2021/06/01 07:37:42;;;;;;;0.95;0.95;;;13.40;80.90;;;;;;5046299;28;20180;-74
2021/06/01 07:40:08;;;;;;;1.00;1.00;;;13.30;81.50;;;;;;5046506;28;20175;-74
2021/06/01 07:42:34;;;;;;;0.93;0.93;;;13.20;82.60;;;;;;5046273;28;20183;-72
2021/06/01 07:45:00;;;;;;;0.93;0.93;;;13.20;82.80;;;;;;5045880;28;20198;-73
2021/06/01 07:47:26;;;;;;;1.00;1.00;;;13.20;82.80;;;;;;5045022;28;20721;-72
2021/06/01 07:49:52;;;;;;;1.70;1.70;;;13.30;83.10;;;;;;5046509;28;20179;-73
2021/06/01 07:52:18;;;;;;;1.50;1.40;;;13.40;83.10;;;;;;5046626;28;20269;-74
2021/06/01 07:54:43;;;;;;;1.65;1.55;;;13.60;83.20;;;;;;5046051;28;20210;-74
2021/06/01 07:57:09;;;;;;;1.42;1.33;;;13.70;83.20;;;;;;5043449;28;20191;-74
2021/06/01 07:59:35;;;;;;;1.10;1.10;;;13.80;82.40;;;;;;5054412;28;20506;-74
2021/06/01 08:02:01;;;;;;;1.17;1.17;;;13.90;82.20;;;;;;5046672;28;20651;-73
2021/06/01 08:04:26;;;;;;;1.30;1.30;;;13.90;81.90;;;;;;5046498;28;20182;-73
2021/06/01 08:06:52;;;;;;;1.20;1.10;;;13.80;81.80;;;;;;5046224;28;20219;-72
2021/06/01 08:09:18;;;;;;;1.15;1.15;;;13.70;82.60;;;;;;5040787;28;20215;-74
2021/06/01 08:11:44;;;;;;;2.35;1.50;;;13.70;82.80;;;;;;5042662;28;20202;-74
2021/06/01 08:14:09;;;;;;;2.35;1.90;;;13.70;81.90;;;;;;5045708;28;20199;-72
2021/06/01 08:16:36;;;;;;;1.73;1.63;;;13.60;81.60;;;;;;5045579;28;20183;-73
2021/06/01 08:19:17;;;;;;;2.15;2.05;;;13.60;82.50;;;;;;5045719;28;20184;-72
2021/06/01 08:24:15;;;;;;;2.65;2.45;;;13.50;82.80;;;;;;5045789;28;20274;-73
2021/06/01 08:26:59;;;;;;;2.50;2.40;;;13.50;83.20;;;;;;5041274;28;20214;-73
2021/06/01 08:29:25;;;;;;;2.58;2.47;;;13.50;83.40;;;;;;5041945;28;20328;-73
2021/06/01 08:31:51;;;;;;;2.95;2.75;;;13.40;83.80;;;;;;5046044;28;20672;-74
2021/06/01 08:34:17;;;;;;;2.92;2.75;;;13.50;84.00;;;;;;5045676;28;20183;-73
2021/06/01 08:36:43;;;;;;;3.35;3.15;;;13.60;84.70;;;;;;5045537;28;20187;-74
2021/06/01 08:39:10;;;;;;;2.38;2.22;;;13.80;84.50;;;;;;5045569;28;20184;-74
2021/06/01 08:41:38;;;;;;;2.22;2.10;;;14.00;83.90;;;;;;5045768;28;20714;-72
2021/06/01 08:44:05;;;;;;;1.77;1.67;;;14.00;83.80;;;;;;5045411;28;20570;-74
2021/06/01 08:46:33;;;;;;;1.98;1.88;;;14.10;83.30;;;;;;5045570;28;20219;-73
2021/06/01 08:48:59;;;;;;;1.33;1.33;;;14.00;82.70;;;;;;5045574;28;20187;-73
2021/06/01 08:51:27;;;;;;;2.03;1.92;;;14.10;82.70;;;;;;5045505;28;20237;-71
2021/06/01 08:53:55;;;;;;;1.60;1.60;;;14.10;82.70;;;;;;5041622;28;20190;-73
2021/06/01 08:56:21;;;;;;;1.80;1.70;;;14.20;81.80;;;;;;5043649;28;20702;-74
2021/06/01 08:58:49;;;;;;;1.45;1.45;;;14.30;81.90;;;;;;5045985;28;20175;-72
2021/06/01 09:01:19;;;;;;;1.50;1.42;;;14.40;81.60;;;;;;5045991;28;20176;-74
2021/06/01 09:03:50;;;;;;;1.55;1.55;;;14.50;81.60;;;;;;5045262;28;20196;-72
2021/06/01 09:11:48;;;;;;;1.80;1.70;;;14.30;81.30;;;;;;5045816;28;20194;-73
2021/06/01 09:22:47;;;;;;;1.83;1.83;;;13.80;81.80;;;;;;5046697;28;20718;-74
2021/06/01 09:25:19;;;;;;;1.08;1.08;;;13.80;81.90;;;;;;5032945;28;20236;-74
2021/06/01 09:27:55;;;;;;;1.33;1.33;;;13.80;81.50;;;;;;5046733;28;20283;-73
2021/06/01 09:30:39;;;;;;;2.15;1.60;;;13.80;82.10;;;;;;5046845;28;20668;-74
2021/06/01 09:33:14;;;;;;;1.38;1.38;;;13.80;81.40;;;;;;5046702;28;20183;-73
2021/06/01 09:35:53;;;;;;;1.33;1.33;;;13.80;81.70;;;;;;5046502;28;20227;-73
2021/06/01 09:38:30;;;;;;;1.60;1.60;;;13.80;81.80;;;;;;5046162;28;20191;-73
2021/06/01 09:41:14;;;;;;;4.10;1.60;;;13.70;82.10;;;;;;5029326;28;20389;-73
2021/06/01 09:43:59;;;;;;;1.30;1.15;;;13.80;82.20;;;;;;5039166;28;20187;-73
2021/06/01 09:46:44;;;;;;;1.40;1.40;;;14.00;82.00;;;;;;5043931;28;20227;-73
2021/06/01 09:49:13;;;;;;;1.60;1.60;;;14.30;80.60;;;;;;5045838;28;20314;-73
2021/06/01 09:51:55;;;;;;;1.58;1.58;;;14.40;80.00;;;;;;5045971;28;20192;-73
2021/06/01 09:54:28;;;;;;;1.50;1.50;;;14.50;79.60;;;;;;5048343;28;20195;-73
2021/06/01 09:56:54;;;;;;;1.20;1.20;;;14.50;78.80;;;;;;5048573;28;20184;-72
2021/06/01 09:59:20;;;;;;;2.30;2.20;;;14.60;79.00;;;;;;5048521;28;20179;-71
2021/06/01 10:01:46;;;;;;;1.90;1.90;;;14.60;78.50;;;;;;5048670;28;20199;-73
2021/06/01 10:04:23;;;;;;;1.83;1.83;;;14.70;78.40;;;;;;5048849;28;20182;-74
2021/06/01 10:06:49;;;;;;;1.85;1.85;;;14.70;78.20;;;;;;5048409;28;20294;-74
2021/06/01 10:09:15;;;;;;;3.00;1.83;;;14.70;78.00;;;;;;5049794;28;20194;-74
2021/06/01 10:11:58;;;;;;;1.63;1.63;;;14.70;77.90;;;;;;5048643;28;20179;-74
2021/06/01 10:14:25;;;;;;;2.17;2.08;;;14.70;77.90;;;;;;5039879;28;20196;-73
2021/06/01 10:16:52;;;;;;;1.95;1.85;;;14.90;78.20;;;;;;5048169;28;20240;-72
2021/06/01 10:19:18;;;;;;;1.70;1.70;;;15.10;77.20;;;;;;5048334;28;20568;-73
2021/06/01 10:21:44;;;;;;;2.13;2.00;;;15.30;76.80;;;;;;5048056;28;20179;-72
2021/06/01 10:24:15;;;;;;;1.70;1.70;;;15.50;76.50;;;;;;5040865;28;20615;-74
2021/06/01 10:26:44;;;;;;;2.05;2.05;;;15.60;76.10;;;;;;5047651;28;20211;-74
2021/06/01 10:29:10;;;;;;;2.30;2.20;;;15.70;75.80;;;;;;5047989;28;20199;-74
2021/06/01 10:31:37;;;;;;;2.10;2.00;;;15.70;75.70;;;;;;5047715;28;20188;-74
2021/06/01 10:34:10;;;;;;;2.20;2.10;;;15.70;75.80;;;;;;5047962;28;20190;-73
2021/06/01 10:42:32;;;;;;;2.30;2.30;;;15.90;76.00;;;;;;5040755;28;20202;-74
2021/06/01 10:50:54;;;;;;;1.65;1.65;;;16.30;75.30;;;;;;5044154;28;20216;-73
2021/06/01 10:53:26;;;;;;;1.80;1.80;;;16.50;73.30;;;;;;5033201;28;20199;-74
2021/06/01 10:55:54;;;;;;;2.15;2.05;;;16.40;73.30;;;;;;5035637;28;20190;-74
2021/06/01 10:58:31;;;;;;;2.53;2.42;;;16.10;75.50;;;;;;5044444;28;20275;-73
2021/06/01 11:04:23;;;;;;;2.67;2.58;;;15.30;78.10;;;;;;5024061;28;20331;-73
2021/06/01 11:06:53;;;;;;;2.65;2.55;;;14.90;79.10;;;;;;5025009;28;20208;-74
2021/06/01 11:09:31;;;;;;;2.13;2.10;;;14.70;80.00;;;;;;5018858;28;20635;-73
2021/06/01 11:11:57;;;;;;;2.20;2.20;;;14.60;79.70;;;;;;5024682;28;20188;-73
2021/06/01 11:14:33;;;;;;;2.22;2.13;;;14.50;79.70;;;;;;5017748;28;20208;-73
2021/06/01 11:17:00;;;;;;;1.90;1.90;;;14.70;78.90;;;;;;5022682;28;20287;-73
2021/06/01 11:19:53;;;;;;;2.58;2.47;;;14.80;77.80;;;;;;5013756;28;20193;-73
2021/06/01 11:22:35;;;;;;;2.25;2.15;;;15.00;76.30;;;;;;5029146;28;20196;-72
2021/06/01 11:33:36;;;;;;;2.60;2.50;;;16.40;74.50;;;;;;5003216;28;20204;-74
2021/06/01 11:36:08;;;;;;;3.22;2.72;;;16.70;72.70;;;;;;5003972;28;20334;-73
2021/06/01 11:39:30;;;;;;;2.40;2.30;;;16.70;72.50;;;;;;5001937;28;20188;-74
2021/06/01 11:44:28;;;;;;;1.40;1.40;;;16.90;72.30;;;;;;5042174;28;20261;-73
2021/06/01 11:47:29;;;;;;;1.13;1.13;;;16.90;72.30;;;;;;5038242;28;20203;-74
2021/06/01 11:52:57;;;;;;;1.42;1.42;;;16.60;71.90;;;;;;5036009;28;20739;-72
2021/06/01 11:55:23;;;;;;;1.70;1.70;;;16.40;72.00;;;;;;5043718;28;20214;-74
2021/06/01 12:03:18;;;;;;;1.95;1.10;;;15.70;73.30;;;;;;5043313;28;20192;-73
2021/06/01 12:19:07;;;;;;;1.63;1.63;;;15.30;74.60;;;;;;5052831;28;20202;-75
2021/06/01 12:21:50;;;;;;;2.05;1.95;;;15.40;75.10;;;;;;5045425;28;20702;-74
2021/06/01 12:24:20;;;;;;;2.35;2.25;;;15.40;75.50;;;;;;5039159;28;20184;-75
2021/06/01 12:32:32;;;;;;;1.23;1.23;;;14.90;76.40;;;;;;5037354;28;20290;-73
2021/06/01 12:43:13;;;;;;;1.08;1.08;;;14.10;79.60;;;;;;5041341;28;20223;-72
2021/06/01 12:45:53;;;;;;;1.05;1.05;;;13.90;80.70;;;;;;5046807;28;20294;-72
2021/06/01 13:37:11;;;;;;;0.50;0.50;;;14.00;81.20;;;;;;5006008;28;20185;-73
2021/06/01 13:48:46;;;;;;;0.40;0.40;;;14.30;82.00;;;;;;4996139;28;20597;-72
2021/06/01 13:51:00;;;;;;;0.57;0.57;;;14.30;82.00;;;;;;5002748;28;20200;-73
2021/06/01 13:56:00;;;;;;;0.40;0.40;;;14.00;81.50;;;;;;5040097;28;20600;-73
2021/06/01 14:01:28;;;;;;;0.50;0.50;;;13.70;82.90;;;;;;5042859;28;20278;-70
2021/06/01 17:05:00;;;;;;;0.57;0.57;;;12.50;87.80;;;;;;5051249;28;20183;-70
2021/06/01 17:13:13;;;;;;;0.55;0.55;;;12.50;88.30;;;;;;5053783;28;20319;-73
2021/06/01 17:15:40;;;;;;;0.50;0.50;;;12.50;87.90;;;;;;5045538;28;20244;-71
2021/06/01 17:18:32;;;;;;;0.60;0.60;;;12.50;88.20;;;;;;5053221;28;20175;-71
2021/06/01 17:36:52;;;;;;;1.02;0.80;;;12.30;89.00;;;;;;5044966;28;20198;-71
2021/06/01 17:39:18;;;;;;;0.60;0.60;;;12.20;89.40;;;;;;5042068;28;20187;-72
2021/06/01 17:41:43;;;;;;;0.93;0.93;;;12.20;89.60;;;;;;5033828;28;20194;-72
2021/06/01 17:44:12;;;;;;;0.50;0.50;;;12.10;89.80;;;;;;5014751;28;20187;-72
2021/06/01 17:46:43;;;;;;;0.60;0.60;;;12.10;90.00;;;;;;5031491;28;20215;-71
2021/06/01 17:49:09;;;;;;;0.38;0.38;;;12.00;89.90;;;;;;5032271;28;20192;-71
2021/06/01 17:51:36;;;;;;;0.45;0.45;;;11.90;89.70;;;;;;5032372;28;20671;-71
2021/06/01 17:54:03;;;;;;;0.80;0.40;;;11.90;89.90;;;;;;5030957;28;20820;-71
2021/06/01 17:56:30;;;;;;;0.40;0.40;;;11.80;90.10;;;;;;5041194;28;20752;-69
2021/06/01 17:58:57;;;;;;;0.22;0.22;;;11.80;90.00;;;;;;5036999;28;20746;-70
2021/06/01 18:01:26;;;;;;;0.30;0.30;;;11.80;89.80;;;;;;5044702;28;20183;-70
2021/06/01 18:04:00;;;;;;;0.22;0.22;;;11.80;90.10;;;;;;5046882;28;20180;-70
2021/06/01 18:06:31;;;;;;;0.35;0.35;;;11.80;90.20;;;;;;5044923;28;20212;-70
2021/06/01 18:09:12;;;;;;;0.40;0.40;;;11.70;90.20;;;;;;5046703;28;20281;-71
2021/06/01 19:52:00;;;;;;;0.35;0.35;;;11.70;91.30;;;;;;4997719;28;20299;-72
2021/06/01 19:54:29;;;;;;;0.38;0.38;;;11.70;91.30;;;;;;4987545;28;20277;-72
2021/06/01 19:56:54;;;;;;;0.38;0.38;;;11.70;91.20;;;;;;4996932;28;20211;-72
2021/06/01 19:59:27;;;;;;;0.30;0.30;;;11.70;91.40;;;;;;5054397;28;20661;-71
2021/06/01 20:02:00;;;;;;;0.60;0.60;;;11.70;91.80;;;;;;5056746;28;20190;-71
2021/06/01 20:07:22;;;;;;;3.50;0.50;;;11.70;91.50;;;;;;5037637;28;20222;-72
2021/06/01 20:09:49;;;;;;;0.30;0.30;;;11.70;91.50;;;;;;5048156;28;20199;-71
2021/06/01 20:12:15;;;;;;;0.30;0.30;;;11.70;91.90;;;;;;5049661;28;20658;-72
2021/06/01 20:14:42;;;;;;;0.57;0.30;;;11.70;91.90;;;;;;5052740;28;20226;-71
2021/06/01 20:17:25;;;;;;;0.30;0.30;;;11.70;91.90;;;;;;5046471;28;20591;-71
2021/06/01 20:19:56;;;;;;;0.20;0.20;;;11.70;92.00;;;;;;5040360;28;20180;-70
2021/06/01 20:22:27;;;;;;;0.40;0.40;;;11.70;91.90;;;;;;5041967;28;20193;-71
2021/06/01 20:25:05;;;;;;;0.35;0.35;;;11.70;91.80;;;;;;5045042;28;20180;-71
2021/06/01 20:27:33;;;;;;;0.30;0.30;;;11.70;91.70;;;;;;5045151;28;20207;-71
2021/06/01 20:30:05;;;;;;;0.40;0.40;;;11.80;92.10;;;;;;5052984;28;20612;-70
2021/06/01 20:35:21;;;;;;;0.20;0.20;;;11.80;91.80;;;;;;5039030;28;20182;-72
2021/06/01 20:37:48;;;;;;;0.30;0.30;;;11.80;91.90;;;;;;5049363;28;20188;-72